sensor_id;sensor_type;location;lat;lon;timestamp;temperature;humidity
4697;DHT22;2362;50.780;0.292;2022-07-23T00:00:53;16.80;99.90
4697;DHT22;2362;50.780;0.292;2022-07-23T00:03:19;16.60;99.90
4697;DHT22;2362;50.780;0.292;2022-07-23T00:05:45;16.60;99.90
4697;DHT22;2362;50.780;0.292;2022-07-23T00:08:11;16.50;99.90
4697;DHT22;2362;50.780;0.292;2022-07-23T00:10:36;16.50;99.90
4697;DHT22;2362;50.780;0.292;2022-07-23T00:13:02;16.40;99.90
4697;DHT22;2362;50.780;0.292;2022-07-23T00:15:28;16.40;99.90
4697;DHT22;2362;50.780;0.292;2022-07-23T00:17:54;16.30;99.90
4697;DHT22;2362;50.780;0.292;2022-07-23T00:20:20;16.30;99.90
4697;DHT22;2362;50.780;0.292;2022-07-23T00:22:50;16.30;99.90
4697;DHT22;2362;50.780;0.292;2022-07-23T00:25:17;16.20;99.90
4697;DHT22;2362;50.780;0.292;2022-07-23T00:27:43;16.20;99.90
4697;DHT22;2362;50.780;0.292;2022-07-23T00:30:09;16.30;99.90
4697;DHT22;2362;50.780;0.292;2022-07-23T00:32:49;16.20;99.90
4697;DHT22;2362;50.780;0.292;2022-07-23T00:35:16;16.20;99.90
4697;DHT22;2362;50.780;0.292;2022-07-23T00:37:42;16.20;99.90
4697;DHT22;2362;50.780;0.292;2022-07-23T00:40:08;16.20;99.90
4697;DHT22;2362;50.780;0.292;2022-07-23T00:42:34;16.20;99.90
4697;DHT22;2362;50.780;0.292;2022-07-23T00:45:00;16.20;99.90
4697;DHT22;2362;50.780;0.292;2022-07-23T00:47:26;16.20;99.90
4697;DHT22;2362;50.780;0.292;2022-07-23T00:49:51;16.20;99.90
4697;DHT22;2362;50.780;0.292;2022-07-23T00:52:17;16.20;99.90
4697;DHT22;2362;50.780;0.292;2022-07-23T00:54:43;16.20;99.90
4697;DHT22;2362;50.780;0.292;2022-07-23T00:57:09;16.20;99.90
4697;DHT22;2362;50.780;0.292;2022-07-23T00:59:35;16.20;99.90
4697;DHT22;2362;50.780;0.292;2022-07-23T01:02:00;16.30;99.90
4697;DHT22;2362;50.780;0.292;2022-07-23T01:04:26;16.30;99.90
4697;DHT22;2362;50.780;0.292;2022-07-23T01:06:52;16.30;99.90
4697;DHT22;2362;50.780;0.292;2022-07-23T01:09:18;16.30;99.90
4697;DHT22;2362;50.780;0.292;2022-07-23T01:11:43;16.30;99.90
4697;DHT22;2362;50.780;0.292;2022-07-23T01:14:17;16.30;99.90
4697;DHT22;2362;50.780;0.292;2022-07-23T01:16:44;16.30;99.90
4697;DHT22;2362;50.780;0.292;2022-07-23T01:19:10;16.30;99.90
4697;DHT22;2362;50.780;0.292;2022-07-23T01:21:47;16.40;99.90
4697;DHT22;2362;50.780;0.292;2022-07-23T01:24:13;16.40;99.90
4697;DHT22;2362;50.780;0.292;2022-07-23T01:26:41;16.40;99.90
4697;DHT22;2362;50.780;0.292;2022-07-23T01:29:08;16.40;99.90
4697;DHT22;2362;50.780;0.292;2022-07-23T01:31:33;16.40;99.90
4697;DHT22;2362;50.780;0.292;2022-07-23T01:33:59;16.40;99.90
4697;DHT22;2362;50.780;0.292;2022-07-23T01:36:25;16.30;99.90
4697;DHT22;2362;50.780;0.292;2022-07-23T01:38:51;16.20;99.90
4697;DHT22;2362;50.780;0.292;2022-07-23T01:41:17;16.20;99.90
4697;DHT22;2362;50.780;0.292;2022-07-23T01:43:42;16.10;99.90
4697;DHT22;2362;50.780;0.292;2022-07-23T01:46:08;16.10;99.90
4697;DHT22;2362;50.780;0.292;2022-07-23T01:48:34;16.10;99.90
4697;DHT22;2362;50.780;0.292;2022-07-23T01:51:00;16.00;99.90
4697;DHT22;2362;50.780;0.292;2022-07-23T01:53:26;16.00;99.90
4697;DHT22;2362;50.780;0.292;2022-07-23T01:55:51;16.00;99.90
4697;DHT22;2362;50.780;0.292;2022-07-23T01:58:17;16.10;99.90
4697;DHT22;2362;50.780;0.292;2022-07-23T02:00:43;16.10;99.90
4697;DHT22;2362;50.780;0.292;2022-07-23T02:03:09;16.10;99.90
4697;DHT22;2362;50.780;0.292;2022-07-23T02:05:34;16.10;99.90
4697;DHT22;2362;50.780;0.292;2022-07-23T02:08:00;16.10;99.90
4697;DHT22;2362;50.780;0.292;2022-07-23T02:10:27;16.10;99.90
4697;DHT22;2362;50.780;0.292;2022-07-23T02:12:53;16.10;99.90
4697;DHT22;2362;50.780;0.292;2022-07-23T02:15:19;16.10;99.90
4697;DHT22;2362;50.780;0.292;2022-07-23T02:17:44;16.10;99.90
4697;DHT22;2362;50.780;0.292;2022-07-23T02:20:11;16.10;99.90
4697;DHT22;2362;50.780;0.292;2022-07-23T02:22:37;16.10;99.90
4697;DHT22;2362;50.780;0.292;2022-07-23T02:25:04;16.10;99.90
4697;DHT22;2362;50.780;0.292;2022-07-23T02:27:30;16.10;99.90
4697;DHT22;2362;50.780;0.292;2022-07-23T02:29:55;16.20;99.90
4697;DHT22;2362;50.780;0.292;2022-07-23T02:32:21;16.20;99.90
4697;DHT22;2362;50.780;0.292;2022-07-23T02:34:47;16.20;99.90
4697;DHT22;2362;50.780;0.292;2022-07-23T02:37:13;16.20;99.90
4697;DHT22;2362;50.780;0.292;2022-07-23T02:39:39;16.30;99.90
4697;DHT22;2362;50.780;0.292;2022-07-23T02:42:05;16.30;99.90
4697;DHT22;2362;50.780;0.292;2022-07-23T02:44:31;16.20;99.90
4697;DHT22;2362;50.780;0.292;2022-07-23T02:46:57;16.30;99.90
4697;DHT22;2362;50.780;0.292;2022-07-23T02:49:22;16.40;99.90
4697;DHT22;2362;50.780;0.292;2022-07-23T02:51:48;16.40;99.90
4697;DHT22;2362;50.780;0.292;2022-07-23T02:54:14;16.40;99.90
4697;DHT22;2362;50.780;0.292;2022-07-23T02:56:40;16.40;99.90
4697;DHT22;2362;50.780;0.292;2022-07-23T02:59:05;16.40;99.90
4697;DHT22;2362;50.780;0.292;2022-07-23T03:01:32;16.40;99.90
4697;DHT22;2362;50.780;0.292;2022-07-23T03:03:57;16.50;99.90
4697;DHT22;2362;50.780;0.292;2022-07-23T03:06:23;16.50;99.90
4697;DHT22;2362;50.780;0.292;2022-07-23T03:08:49;16.60;99.90
4697;DHT22;2362;50.780;0.292;2022-07-23T03:11:14;16.60;99.90
4697;DHT22;2362;50.780;0.292;2022-07-23T03:13:41;16.60;99.90
4697;DHT22;2362;50.780;0.292;2022-07-23T03:16:07;16.60;99.90
4697;DHT22;2362;50.780;0.292;2022-07-23T03:18:33;16.60;99.90
4697;DHT22;2362;50.780;0.292;2022-07-23T03:20:59;16.60;99.90
4697;DHT22;2362;50.780;0.292;2022-07-23T03:23:25;16.60;99.90
4697;DHT22;2362;50.780;0.292;2022-07-23T03:25:51;16.60;99.90
4697;DHT22;2362;50.780;0.292;2022-07-23T03:28:18;16.60;99.90
4697;DHT22;2362;50.780;0.292;2022-07-23T03:30:45;16.60;99.90
4697;DHT22;2362;50.780;0.292;2022-07-23T03:33:18;16.60;99.90
4697;DHT22;2362;50.780;0.292;2022-07-23T03:35:45;16.70;99.90
4697;DHT22;2362;50.780;0.292;2022-07-23T03:38:12;16.70;99.90
4697;DHT22;2362;50.780;0.292;2022-07-23T03:40:38;16.70;99.90
4697;DHT22;2362;50.780;0.292;2022-07-23T03:43:03;16.70;99.90
4697;DHT22;2362;50.780;0.292;2022-07-23T03:45:29;16.70;99.90
4697;DHT22;2362;50.780;0.292;2022-07-23T03:47:55;16.70;99.90
4697;DHT22;2362;50.780;0.292;2022-07-23T03:50:21;16.70;99.90
4697;DHT22;2362;50.780;0.292;2022-07-23T03:52:47;16.70;99.90
4697;DHT22;2362;50.780;0.292;2022-07-23T03:55:13;16.70;99.90
4697;DHT22;2362;50.780;0.292;2022-07-23T03:57:39;16.70;99.90
4697;DHT22;2362;50.780;0.292;2022-07-23T04:00:05;16.60;99.90
4697;DHT22;2362;50.780;0.292;2022-07-23T04:02:32;16.50;99.90
4697;DHT22;2362;50.780;0.292;2022-07-23T04:04:58;16.50;99.90
4697;DHT22;2362;50.780;0.292;2022-07-23T04:07:24;16.50;99.90
4697;DHT22;2362;50.780;0.292;2022-07-23T04:09:50;16.50;99.90
4697;DHT22;2362;50.780;0.292;2022-07-23T04:12:16;16.40;99.90
4697;DHT22;2362;50.780;0.292;2022-07-23T04:14:42;16.40;99.90
4697;DHT22;2362;50.780;0.292;2022-07-23T04:17:08;16.40;99.90
4697;DHT22;2362;50.780;0.292;2022-07-23T04:19:33;16.30;99.90
4697;DHT22;2362;50.780;0.292;2022-07-23T04:22:00;16.30;99.90
4697;DHT22;2362;50.780;0.292;2022-07-23T04:24:26;16.30;99.90
4697;DHT22;2362;50.780;0.292;2022-07-23T04:26:52;16.20;99.90
4697;DHT22;2362;50.780;0.292;2022-07-23T04:29:18;16.30;99.90
4697;DHT22;2362;50.780;0.292;2022-07-23T04:31:44;16.20;99.90
4697;DHT22;2362;50.780;0.292;2022-07-23T04:34:09;16.30;99.90
4697;DHT22;2362;50.780;0.292;2022-07-23T04:36:35;16.30;99.90
4697;DHT22;2362;50.780;0.292;2022-07-23T04:39:01;16.30;99.90
4697;DHT22;2362;50.780;0.292;2022-07-23T04:41:27;16.30;99.90
4697;DHT22;2362;50.780;0.292;2022-07-23T04:43:52;16.30;99.90
4697;DHT22;2362;50.780;0.292;2022-07-23T04:46:18;16.30;99.90
4697;DHT22;2362;50.780;0.292;2022-07-23T04:48:44;16.20;99.90
4697;DHT22;2362;50.780;0.292;2022-07-23T04:51:09;16.30;99.90
4697;DHT22;2362;50.780;0.292;2022-07-23T04:53:37;16.30;99.90
4697;DHT22;2362;50.780;0.292;2022-07-23T04:56:04;16.30;99.90
4697;DHT22;2362;50.780;0.292;2022-07-23T04:58:30;16.30;99.90
4697;DHT22;2362;50.780;0.292;2022-07-23T05:00:57;16.30;99.90
4697;DHT22;2362;50.780;0.292;2022-07-23T05:03:23;16.30;99.90
4697;DHT22;2362;50.780;0.292;2022-07-23T05:05:49;16.40;99.90
4697;DHT22;2362;50.780;0.292;2022-07-23T05:08:15;16.40;99.90
4697;DHT22;2362;50.780;0.292;2022-07-23T05:10:41;16.40;99.90
4697;DHT22;2362;50.780;0.292;2022-07-23T05:13:07;16.40;99.90
4697;DHT22;2362;50.780;0.292;2022-07-23T05:15:32;16.40;99.90
4697;DHT22;2362;50.780;0.292;2022-07-23T05:17:58;16.40;99.90
4697;DHT22;2362;50.780;0.292;2022-07-23T05:20:24;16.50;99.90
4697;DHT22;2362;50.780;0.292;2022-07-23T05:22:50;16.70;99.90
4697;DHT22;2362;50.780;0.292;2022-07-23T05:25:15;16.90;99.90
4697;DHT22;2362;50.780;0.292;2022-07-23T05:27:41;17.40;99.90
4697;DHT22;2362;50.780;0.292;2022-07-23T05:30:07;17.90;99.90
4697;DHT22;2362;50.780;0.292;2022-07-23T05:32:33;18.20;99.90
4697;DHT22;2362;50.780;0.292;2022-07-23T05:34:59;18.40;99.90
4697;DHT22;2362;50.780;0.292;2022-07-23T05:37:24;18.70;99.90
4697;DHT22;2362;50.780;0.292;2022-07-23T05:39:50;18.90;99.90
4697;DHT22;2362;50.780;0.292;2022-07-23T05:42:16;19.10;99.90
4697;DHT22;2362;50.780;0.292;2022-07-23T05:44:41;19.30;99.90
4697;DHT22;2362;50.780;0.292;2022-07-23T05:47:07;19.60;99.90
4697;DHT22;2362;50.780;0.292;2022-07-23T05:49:33;19.90;99.90
4697;DHT22;2362;50.780;0.292;2022-07-23T05:51:58;20.20;99.90
4697;DHT22;2362;50.780;0.292;2022-07-23T05:54:24;20.50;99.90
4697;DHT22;2362;50.780;0.292;2022-07-23T05:56:50;21.00;99.90
4697;DHT22;2362;50.780;0.292;2022-07-23T05:59:15;21.30;99.90
4697;DHT22;2362;50.780;0.292;2022-07-23T06:01:41;21.40;99.90
4697;DHT22;2362;50.780;0.292;2022-07-23T06:04:07;21.40;99.90
4697;DHT22;2362;50.780;0.292;2022-07-23T06:06:33;21.50;99.90
4697;DHT22;2362;50.780;0.292;2022-07-23T06:08:59;22.00;99.90
4697;DHT22;2362;50.780;0.292;2022-07-23T06:11:24;22.40;99.90
4697;DHT22;2362;50.780;0.292;2022-07-23T06:13:50;22.40;99.90
4697;DHT22;2362;50.780;0.292;2022-07-23T06:16:16;22.10;99.90
4697;DHT22;2362;50.780;0.292;2022-07-23T06:18:41;21.60;99.90
4697;DHT22;2362;50.780;0.292;2022-07-23T06:21:07;21.70;99.90
4697;DHT22;2362;50.780;0.292;2022-07-23T06:23:33;22.30;99.90
4697;DHT22;2362;50.780;0.292;2022-07-23T06:25:58;23.10;99.90
4697;DHT22;2362;50.780;0.292;2022-07-23T06:28:24;23.80;99.90
4697;DHT22;2362;50.780;0.292;2022-07-23T06:30:50;24.20;99.90
4697;DHT22;2362;50.780;0.292;2022-07-23T06:33:15;24.60;99.90
4697;DHT22;2362;50.780;0.292;2022-07-23T06:35:41;24.90;99.90
4697;DHT22;2362;50.780;0.292;2022-07-23T06:38:07;25.30;99.90
4697;DHT22;2362;50.780;0.292;2022-07-23T06:40:32;25.30;99.90
4697;DHT22;2362;50.780;0.292;2022-07-23T06:42:58;25.50;99.90
4697;DHT22;2362;50.780;0.292;2022-07-23T06:45:24;26.20;99.90
4697;DHT22;2362;50.780;0.292;2022-07-23T06:47:49;26.60;99.90
4697;DHT22;2362;50.780;0.292;2022-07-23T06:50:15;27.00;99.90
4697;DHT22;2362;50.780;0.292;2022-07-23T06:52:41;27.30;99.90
4697;DHT22;2362;50.780;0.292;2022-07-23T06:55:07;27.60;99.90
4697;DHT22;2362;50.780;0.292;2022-07-23T06:57:32;27.30;99.90
4697;DHT22;2362;50.780;0.292;2022-07-23T06:59:58;27.30;99.90
4697;DHT22;2362;50.780;0.292;2022-07-23T07:02:24;27.30;99.90
4697;DHT22;2362;50.780;0.292;2022-07-23T07:04:49;27.40;99.90
4697;DHT22;2362;50.780;0.292;2022-07-23T07:07:15;27.70;99.90
4697;DHT22;2362;50.780;0.292;2022-07-23T07:09:41;27.70;99.90
4697;DHT22;2362;50.780;0.292;2022-07-23T07:12:06;27.50;99.90
4697;DHT22;2362;50.780;0.292;2022-07-23T07:14:32;27.90;99.90
4697;DHT22;2362;50.780;0.292;2022-07-23T07:16:58;28.50;99.90
4697;DHT22;2362;50.780;0.292;2022-07-23T07:19:24;28.70;99.90
4697;DHT22;2362;50.780;0.292;2022-07-23T07:21:49;28.30;99.90
4697;DHT22;2362;50.780;0.292;2022-07-23T07:24:15;28.00;99.90
4697;DHT22;2362;50.780;0.292;2022-07-23T07:26:41;27.40;99.90
4697;DHT22;2362;50.780;0.292;2022-07-23T07:29:06;28.00;99.90
4697;DHT22;2362;50.780;0.292;2022-07-23T07:31:32;28.60;99.90
4697;DHT22;2362;50.780;0.292;2022-07-23T07:33:58;28.00;99.90
4697;DHT22;2362;50.780;0.292;2022-07-23T07:36:24;27.90;99.90
4697;DHT22;2362;50.780;0.292;2022-07-23T07:38:50;28.50;99.90
4697;DHT22;2362;50.780;0.292;2022-07-23T07:41:16;29.10;99.90
4697;DHT22;2362;50.780;0.292;2022-07-23T07:43:42;29.30;99.90
4697;DHT22;2362;50.780;0.292;2022-07-23T07:46:07;29.60;99.90
4697;DHT22;2362;50.780;0.292;2022-07-23T07:48:39;29.60;99.90
4697;DHT22;2362;50.780;0.292;2022-07-23T07:51:05;28.80;99.90
4697;DHT22;2362;50.780;0.292;2022-07-23T07:53:31;27.60;99.90
4697;DHT22;2362;50.780;0.292;2022-07-23T07:55:57;27.30;99.90
4697;DHT22;2362;50.780;0.292;2022-07-23T07:58:22;26.30;99.90
4697;DHT22;2362;50.780;0.292;2022-07-23T08:00:48;25.40;99.90
4697;DHT22;2362;50.780;0.292;2022-07-23T08:03:14;25.50;99.90
4697;DHT22;2362;50.780;0.292;2022-07-23T08:05:40;25.40;99.90
4697;DHT22;2362;50.780;0.292;2022-07-23T08:08:05;26.20;99.90
4697;DHT22;2362;50.780;0.292;2022-07-23T08:10:31;27.30;99.90
4697;DHT22;2362;50.780;0.292;2022-07-23T08:12:58;27.60;99.90
4697;DHT22;2362;50.780;0.292;2022-07-23T08:15:27;27.90;99.90
4697;DHT22;2362;50.780;0.292;2022-07-23T08:17:53;27.70;99.90
4697;DHT22;2362;50.780;0.292;2022-07-23T08:20:21;27.70;99.90
4697;DHT22;2362;50.780;0.292;2022-07-23T08:23:05;27.00;99.90
4697;DHT22;2362;50.780;0.292;2022-07-23T08:25:34;26.90;99.90
4697;DHT22;2362;50.780;0.292;2022-07-23T08:28:01;26.20;99.90
4697;DHT22;2362;50.780;0.292;2022-07-23T08:30:28;25.80;99.90
4697;DHT22;2362;50.780;0.292;2022-07-23T08:35:30;27.20;99.90
4697;DHT22;2362;50.780;0.292;2022-07-23T08:37:57;27.10;99.90
4697;DHT22;2362;50.780;0.292;2022-07-23T08:40:25;26.70;99.90
4697;DHT22;2362;50.780;0.292;2022-07-23T08:42:51;26.40;99.90
4697;DHT22;2362;50.780;0.292;2022-07-23T08:45:19;26.00;99.90
4697;DHT22;2362;50.780;0.292;2022-07-23T08:47:52;26.20;99.90
4697;DHT22;2362;50.780;0.292;2022-07-23T08:50:18;25.70;99.90
4697;DHT22;2362;50.780;0.292;2022-07-23T08:52:44;24.80;99.90
4697;DHT22;2362;50.780;0.292;2022-07-23T08:55:10;25.00;99.90
4697;DHT22;2362;50.780;0.292;2022-07-23T08:57:36;25.60;99.90
4697;DHT22;2362;50.780;0.292;2022-07-23T09:00:04;26.60;99.90
4697;DHT22;2362;50.780;0.292;2022-07-23T09:02:30;27.20;99.90
4697;DHT22;2362;50.780;0.292;2022-07-23T09:04:56;27.40;99.90
4697;DHT22;2362;50.780;0.292;2022-07-23T09:07:22;27.30;99.90
4697;DHT22;2362;50.780;0.292;2022-07-23T09:10:08;26.60;99.90
4697;DHT22;2362;50.780;0.292;2022-07-23T09:12:34;26.70;99.90
4697;DHT22;2362;50.780;0.292;2022-07-23T09:15:07;26.20;99.90
4697;DHT22;2362;50.780;0.292;2022-07-23T09:17:38;26.10;99.90
4697;DHT22;2362;50.780;0.292;2022-07-23T09:20:13;26.30;99.90
4697;DHT22;2362;50.780;0.292;2022-07-23T09:22:48;25.90;99.90
4697;DHT22;2362;50.780;0.292;2022-07-23T09:25:16;25.70;99.90
4697;DHT22;2362;50.780;0.292;2022-07-23T09:27:54;25.70;99.90
4697;DHT22;2362;50.780;0.292;2022-07-23T09:30:22;25.40;99.90
4697;DHT22;2362;50.780;0.292;2022-07-23T09:33:08;25.40;99.90
4697;DHT22;2362;50.780;0.292;2022-07-23T09:38:14;24.70;99.90
4697;DHT22;2362;50.780;0.292;2022-07-23T09:40:40;24.40;99.90
4697;DHT22;2362;50.780;0.292;2022-07-23T09:43:06;24.50;99.90
4697;DHT22;2362;50.780;0.292;2022-07-23T09:45:31;24.60;99.90
4697;DHT22;2362;50.780;0.292;2022-07-23T09:48:14;24.90;99.90
4697;DHT22;2362;50.780;0.292;2022-07-23T09:50:44;24.90;99.90
4697;DHT22;2362;50.780;0.292;2022-07-23T09:53:31;25.10;99.90
4697;DHT22;2362;50.780;0.292;2022-07-23T09:55:58;24.90;99.90
4697;DHT22;2362;50.780;0.292;2022-07-23T09:58:26;24.50;99.90
4697;DHT22;2362;50.780;0.292;2022-07-23T10:00:55;24.40;99.90
4697;DHT22;2362;50.780;0.292;2022-07-23T10:03:23;24.40;99.90
4697;DHT22;2362;50.780;0.292;2022-07-23T10:05:50;24.50;99.90
4697;DHT22;2362;50.780;0.292;2022-07-23T10:08:18;24.10;99.90
4697;DHT22;2362;50.780;0.292;2022-07-23T10:10:46;24.10;99.90
4697;DHT22;2362;50.780;0.292;2022-07-23T10:13:13;23.90;99.90
4697;DHT22;2362;50.780;0.292;2022-07-23T10:15:58;23.60;99.90
4697;DHT22;2362;50.780;0.292;2022-07-23T10:18:23;23.50;99.90
4697;DHT22;2362;50.780;0.292;2022-07-23T10:20:49;23.20;99.90
4697;DHT22;2362;50.780;0.292;2022-07-23T10:23:30;23.30;99.90
4697;DHT22;2362;50.780;0.292;2022-07-23T10:34:27;23.80;99.90
4697;DHT22;2362;50.780;0.292;2022-07-23T10:37:17;23.80;99.90
4697;DHT22;2362;50.780;0.292;2022-07-23T10:40:13;23.90;99.90
4697;DHT22;2362;50.780;0.292;2022-07-23T10:42:39;24.10;99.90
4697;DHT22;2362;50.780;0.292;2022-07-23T10:47:50;24.10;99.90
4697;DHT22;2362;50.780;0.292;2022-07-23T10:50:25;23.80;99.90
4697;DHT22;2362;50.780;0.292;2022-07-23T10:53:15;23.80;99.90
4697;DHT22;2362;50.780;0.292;2022-07-23T10:55:48;23.80;99.90
4697;DHT22;2362;50.780;0.292;2022-07-23T10:58:22;23.80;99.90
4697;DHT22;2362;50.780;0.292;2022-07-23T11:00:48;23.80;99.90
4697;DHT22;2362;50.780;0.292;2022-07-23T11:03:34;23.90;99.90
4697;DHT22;2362;50.780;0.292;2022-07-23T11:06:04;23.70;99.90
4697;DHT22;2362;50.780;0.292;2022-07-23T11:08:30;23.50;99.90
4697;DHT22;2362;50.780;0.292;2022-07-23T11:13:38;23.80;99.90
4697;DHT22;2362;50.780;0.292;2022-07-23T11:16:11;23.90;99.90
4697;DHT22;2362;50.780;0.292;2022-07-23T11:24:12;23.80;99.90
4697;DHT22;2362;50.780;0.292;2022-07-23T11:26:49;23.70;99.90
4697;DHT22;2362;50.780;0.292;2022-07-23T11:37:02;23.40;99.90
4697;DHT22;2362;50.780;0.292;2022-07-23T11:39:31;23.50;99.90
4697;DHT22;2362;50.780;0.292;2022-07-23T11:41:58;23.60;99.90
4697;DHT22;2362;50.780;0.292;2022-07-23T11:44:38;23.70;99.90
4697;DHT22;2362;50.780;0.292;2022-07-23T11:47:06;23.70;99.90
4697;DHT22;2362;50.780;0.292;2022-07-23T11:49:33;23.60;99.90
4697;DHT22;2362;50.780;0.292;2022-07-23T11:52:05;23.60;99.90
4697;DHT22;2362;50.780;0.292;2022-07-23T11:54:32;23.70;99.90
4697;DHT22;2362;50.780;0.292;2022-07-23T11:57:00;23.70;99.90
4697;DHT22;2362;50.780;0.292;2022-07-23T11:59:32;23.50;99.90
4697;DHT22;2362;50.780;0.292;2022-07-23T12:01:58;23.40;99.90
4697;DHT22;2362;50.780;0.292;2022-07-23T12:04:44;23.40;99.90
4697;DHT22;2362;50.780;0.292;2022-07-23T12:07:46;23.30;99.90
4697;DHT22;2362;50.780;0.292;2022-07-23T12:13:06;23.50;99.90
4697;DHT22;2362;50.780;0.292;2022-07-23T12:15:41;23.50;99.90
4697;DHT22;2362;50.780;0.292;2022-07-23T12:18:09;23.50;99.90
4697;DHT22;2362;50.780;0.292;2022-07-23T12:20:44;23.50;99.90
4697;DHT22;2362;50.780;0.292;2022-07-23T12:23:14;23.50;99.90
4697;DHT22;2362;50.780;0.292;2022-07-23T12:25:42;23.30;99.90
4697;DHT22;2362;50.780;0.292;2022-07-23T12:28:14;23.00;99.90
4697;DHT22;2362;50.780;0.292;2022-07-23T12:33:24;22.80;99.90
4697;DHT22;2362;50.780;0.292;2022-07-23T12:35:52;22.80;99.90
4697;DHT22;2362;50.780;0.292;2022-07-23T12:38:20;22.70;99.90
4697;DHT22;2362;50.780;0.292;2022-07-23T12:43:31;22.80;99.90
4697;DHT22;2362;50.780;0.292;2022-07-23T12:48:33;22.90;99.90
4697;DHT22;2362;50.780;0.292;2022-07-23T12:51:03;23.00;99.90
4697;DHT22;2362;50.780;0.292;2022-07-23T13:06:31;23.10;99.90
4697;DHT22;2362;50.780;0.292;2022-07-23T13:08:58;22.90;99.90
4697;DHT22;2362;50.780;0.292;2022-07-23T13:11:24;22.80;99.90
4697;DHT22;2362;50.780;0.292;2022-07-23T13:13:49;22.60;99.90
4697;DHT22;2362;50.780;0.292;2022-07-23T13:16:15;22.60;99.90
4697;DHT22;2362;50.780;0.292;2022-07-23T13:18:41;22.70;99.90
4697;DHT22;2362;50.780;0.292;2022-07-23T13:21:07;22.80;99.90
4697;DHT22;2362;50.780;0.292;2022-07-23T13:23:33;22.80;99.90
4697;DHT22;2362;50.780;0.292;2022-07-23T13:25:59;22.80;99.90
4697;DHT22;2362;50.780;0.292;2022-07-23T13:28:25;22.80;99.90
4697;DHT22;2362;50.780;0.292;2022-07-23T13:30:52;22.80;99.90
4697;DHT22;2362;50.780;0.292;2022-07-23T13:33:20;22.60;99.90
4697;DHT22;2362;50.780;0.292;2022-07-23T13:35:46;22.50;99.90
4697;DHT22;2362;50.780;0.292;2022-07-23T13:38:12;22.30;99.90
4697;DHT22;2362;50.780;0.292;2022-07-23T13:40:41;22.20;99.90
4697;DHT22;2362;50.780;0.292;2022-07-23T13:43:11;22.30;99.90
4697;DHT22;2362;50.780;0.292;2022-07-23T13:45:38;22.30;99.90
4697;DHT22;2362;50.780;0.292;2022-07-23T13:48:05;22.30;99.90
4697;DHT22;2362;50.780;0.292;2022-07-23T13:50:31;22.50;99.90
4697;DHT22;2362;50.780;0.292;2022-07-23T13:52:57;22.60;99.90
4697;DHT22;2362;50.780;0.292;2022-07-23T13:55:25;22.60;99.90
4697;DHT22;2362;50.780;0.292;2022-07-23T13:57:51;22.60;99.90
4697;DHT22;2362;50.780;0.292;2022-07-23T14:00:17;22.70;99.90
4697;DHT22;2362;50.780;0.292;2022-07-23T14:02:42;22.70;99.90
4697;DHT22;2362;50.780;0.292;2022-07-23T14:05:09;22.50;99.90
4697;DHT22;2362;50.780;0.292;2022-07-23T14:07:37;22.50;99.90
4697;DHT22;2362;50.780;0.292;2022-07-23T14:10:04;22.60;99.90
4697;DHT22;2362;50.780;0.292;2022-07-23T14:12:30;22.50;99.90
4697;DHT22;2362;50.780;0.292;2022-07-23T14:14:56;22.60;99.90
4697;DHT22;2362;50.780;0.292;2022-07-23T14:17:22;22.70;99.90
4697;DHT22;2362;50.780;0.292;2022-07-23T14:19:49;22.70;99.90
4697;DHT22;2362;50.780;0.292;2022-07-23T14:22:15;22.80;99.90
4697;DHT22;2362;50.780;0.292;2022-07-23T14:24:41;22.80;99.90
4697;DHT22;2362;50.780;0.292;2022-07-23T14:27:07;22.80;99.90
4697;DHT22;2362;50.780;0.292;2022-07-23T14:29:33;22.80;99.90
4697;DHT22;2362;50.780;0.292;2022-07-23T14:31:59;22.70;99.90
4697;DHT22;2362;50.780;0.292;2022-07-23T14:34:25;22.80;99.90
4697;DHT22;2362;50.780;0.292;2022-07-23T14:36:51;22.70;99.90
4697;DHT22;2362;50.780;0.292;2022-07-23T14:39:18;22.60;99.90
4697;DHT22;2362;50.780;0.292;2022-07-23T14:41:43;22.40;99.90
4697;DHT22;2362;50.780;0.292;2022-07-23T14:44:09;22.40;99.90
4697;DHT22;2362;50.780;0.292;2022-07-23T14:46:35;22.30;99.90
4697;DHT22;2362;50.780;0.292;2022-07-23T14:49:00;22.20;99.90
4697;DHT22;2362;50.780;0.292;2022-07-23T14:51:26;22.30;99.90
4697;DHT22;2362;50.780;0.292;2022-07-23T14:53:52;22.40;99.90
4697;DHT22;2362;50.780;0.292;2022-07-23T14:56:19;22.60;99.90
4697;DHT22;2362;50.780;0.292;2022-07-23T14:58:45;22.60;99.90
4697;DHT22;2362;50.780;0.292;2022-07-23T15:01:11;22.80;99.90
4697;DHT22;2362;50.780;0.292;2022-07-23T15:03:37;22.80;99.90
4697;DHT22;2362;50.780;0.292;2022-07-23T15:06:04;22.60;99.90
4697;DHT22;2362;50.780;0.292;2022-07-23T15:08:29;22.60;99.90
4697;DHT22;2362;50.780;0.292;2022-07-23T15:10:55;22.60;99.90
4697;DHT22;2362;50.780;0.292;2022-07-23T15:13:21;22.60;99.90
4697;DHT22;2362;50.780;0.292;2022-07-23T15:15:46;22.60;99.90
4697;DHT22;2362;50.780;0.292;2022-07-23T15:18:12;22.40;99.90
4697;DHT22;2362;50.780;0.292;2022-07-23T15:20:38;22.10;99.90
4697;DHT22;2362;50.780;0.292;2022-07-23T15:23:07;22.10;99.90
4697;DHT22;2362;50.780;0.292;2022-07-23T15:25:33;22.20;99.90
4697;DHT22;2362;50.780;0.292;2022-07-23T15:27:59;22.20;99.90
4697;DHT22;2362;50.780;0.292;2022-07-23T15:30:26;22.30;99.90
4697;DHT22;2362;50.780;0.292;2022-07-23T15:32:52;22.40;99.90
4697;DHT22;2362;50.780;0.292;2022-07-23T15:35:19;22.40;99.90
4697;DHT22;2362;50.780;0.292;2022-07-23T15:37:44;22.40;99.90
4697;DHT22;2362;50.780;0.292;2022-07-23T15:40:11;22.40;99.90
4697;DHT22;2362;50.780;0.292;2022-07-23T15:42:37;22.10;99.90
4697;DHT22;2362;50.780;0.292;2022-07-23T15:45:03;21.90;99.90
4697;DHT22;2362;50.780;0.292;2022-07-23T15:47:29;22.00;99.90
4697;DHT22;2362;50.780;0.292;2022-07-23T15:49:55;21.90;99.90
4697;DHT22;2362;50.780;0.292;2022-07-23T15:52:21;21.90;99.90
4697;DHT22;2362;50.780;0.292;2022-07-23T15:54:46;21.90;99.90
4697;DHT22;2362;50.780;0.292;2022-07-23T15:57:12;21.80;99.90
4697;DHT22;2362;50.780;0.292;2022-07-23T15:59:38;21.80;99.90
4697;DHT22;2362;50.780;0.292;2022-07-23T16:02:04;21.70;99.90
4697;DHT22;2362;50.780;0.292;2022-07-23T16:04:30;21.70;99.90
4697;DHT22;2362;50.780;0.292;2022-07-23T16:06:57;21.80;99.90
4697;DHT22;2362;50.780;0.292;2022-07-23T16:09:22;21.80;99.90
4697;DHT22;2362;50.780;0.292;2022-07-23T16:11:48;21.70;99.90
4697;DHT22;2362;50.780;0.292;2022-07-23T16:14:14;21.60;99.90
4697;DHT22;2362;50.780;0.292;2022-07-23T16:16:41;21.80;99.90
4697;DHT22;2362;50.780;0.292;2022-07-23T16:19:06;21.80;99.90
4697;DHT22;2362;50.780;0.292;2022-07-23T16:21:32;21.70;99.90
4697;DHT22;2362;50.780;0.292;2022-07-23T16:23:58;21.60;99.90
4697;DHT22;2362;50.780;0.292;2022-07-23T16:26:24;21.60;99.90
4697;DHT22;2362;50.780;0.292;2022-07-23T16:28:51;21.60;99.90
4697;DHT22;2362;50.780;0.292;2022-07-23T16:31:17;21.70;99.90
4697;DHT22;2362;50.780;0.292;2022-07-23T16:33:43;21.70;99.90
4697;DHT22;2362;50.780;0.292;2022-07-23T16:36:09;21.60;99.90
4697;DHT22;2362;50.780;0.292;2022-07-23T16:38:36;21.70;99.90
4697;DHT22;2362;50.780;0.292;2022-07-23T16:41:03;21.70;99.90
4697;DHT22;2362;50.780;0.292;2022-07-23T16:43:30;21.60;99.90
4697;DHT22;2362;50.780;0.292;2022-07-23T16:46:01;21.50;99.90
4697;DHT22;2362;50.780;0.292;2022-07-23T16:48:27;21.30;99.90
4697;DHT22;2362;50.780;0.292;2022-07-23T16:50:53;21.30;99.90
4697;DHT22;2362;50.780;0.292;2022-07-23T16:53:19;21.20;99.90
4697;DHT22;2362;50.780;0.292;2022-07-23T16:55:44;21.30;99.90
4697;DHT22;2362;50.780;0.292;2022-07-23T16:58:10;21.40;99.90